sensor_id;sensor_type;location;lat;lon;timestamp;P1;durP1;ratioP1;P2;durP2;ratioP2
32786;SDS011;19139;49.372;8.580;2024-01-15T02:08:49;33.17;;;15.65;;
32786;SDS011;19139;49.372;8.580;2024-01-15T02:11:16;35.72;;;15.10;;
32786;SDS011;19139;49.372;8.580;2024-01-15T02:13:43;30.05;;;13.63;;
32786;SDS011;19139;49.372;8.580;2024-01-15T02:16:10;33.03;;;15.40;;
32786;SDS011;19139;49.372;8.580;2024-01-15T02:18:41;30.25;;;13.50;;
32786;SDS011;19139;49.372;8.580;2024-01-15T02:21:09;30.80;;;13.88;;
32786;SDS011;19139;49.372;8.580;2024-01-15T02:23:37;34.55;;;15.63;;
32786;SDS011;19139;49.372;8.580;2024-01-15T02:26:05;34.45;;;14.15;;
32786;SDS011;19139;49.372;8.580;2024-01-15T02:28:32;33.17;;;14.95;;
32786;SDS011;19139;49.372;8.580;2024-01-15T02:30:59;35.58;;;16.35;;
32786;SDS011;19139;49.372;8.580;2024-01-15T02:33:26;32.45;;;14.48;;
32786;SDS011;19139;49.372;8.580;2024-01-15T02:35:53;36.83;;;16.20;;
32786;SDS011;19139;49.372;8.580;2024-01-15T02:38:20;31.38;;;14.85;;
32786;SDS011;19139;49.372;8.580;2024-01-15T02:40:47;31.42;;;14.73;;
32786;SDS011;19139;49.372;8.580;2024-01-15T02:43:14;30.58;;;13.82;;
32786;SDS011;19139;49.372;8.580;2024-01-15T02:45:40;31.83;;;14.25;;
32786;SDS011;19139;49.372;8.580;2024-01-15T02:48:07;29.58;;;14.10;;
32786;SDS011;19139;49.372;8.580;2024-01-15T02:50:34;30.42;;;13.27;;
32786;SDS011;19139;49.372;8.580;2024-01-15T02:53:01;30.23;;;12.43;;
32786;SDS011;19139;49.372;8.580;2024-01-15T02:55:28;26.90;;;13.25;;
32786;SDS011;19139;49.372;8.580;2024-01-15T02:57:56;27.98;;;13.35;;
32786;SDS011;19139;49.372;8.580;2024-01-15T03:00:23;26.13;;;13.55;;
32786;SDS011;19139;49.372;8.580;2024-01-15T03:02:50;28.15;;;14.05;;
32786;SDS011;19139;49.372;8.580;2024-01-15T03:05:17;28.40;;;13.32;;
32786;SDS011;19139;49.372;8.580;2024-01-15T03:07:44;31.88;;;12.85;;
32786;SDS011;19139;49.372;8.580;2024-01-15T03:10:11;29.83;;;14.52;;
32786;SDS011;19139;49.372;8.580;2024-01-15T03:12:37;31.73;;;13.50;;
32786;SDS011;19139;49.372;8.580;2024-01-15T03:15:04;30.58;;;13.75;;
32786;SDS011;19139;49.372;8.580;2024-01-15T03:17:31;25.17;;;12.60;;
32786;SDS011;19139;49.372;8.580;2024-01-15T03:19:58;28.08;;;12.95;;
32786;SDS011;19139;49.372;8.580;2024-01-15T03:22:25;25.85;;;12.25;;
32786;SDS011;19139;49.372;8.580;2024-01-15T03:24:52;27.52;;;12.80;;
32786;SDS011;19139;49.372;8.580;2024-01-15T03:27:20;30.75;;;12.05;;
32786;SDS011;19139;49.372;8.580;2024-01-15T03:29:46;26.88;;;12.90;;
32786;SDS011;19139;49.372;8.580;2024-01-15T03:32:13;23.30;;;12.43;;
32786;SDS011;19139;49.372;8.580;2024-01-15T03:34:42;27.77;;;13.35;;
32786;SDS011;19139;49.372;8.580;2024-01-15T03:37:08;28.98;;;13.73;;
32786;SDS011;19139;49.372;8.580;2024-01-15T03:39:35;28.45;;;12.75;;
32786;SDS011;19139;49.372;8.580;2024-01-15T03:42:02;28.02;;;12.90;;
32786;SDS011;19139;49.372;8.580;2024-01-15T03:44:30;27.95;;;13.30;;
32786;SDS011;19139;49.372;8.580;2024-01-15T03:46:56;27.60;;;12.15;;
32786;SDS011;19139;49.372;8.580;2024-01-15T03:49:24;24.80;;;11.23;;
32786;SDS011;19139;49.372;8.580;2024-01-15T03:51:51;27.15;;;13.23;;
32786;SDS011;19139;49.372;8.580;2024-01-15T03:54:17;25.10;;;13.07;;
32786;SDS011;19139;49.372;8.580;2024-01-15T03:56:46;27.63;;;12.43;;
32786;SDS011;19139;49.372;8.580;2024-01-15T03:59:13;27.67;;;13.15;;
32786;SDS011;19139;49.372;8.580;2024-01-15T04:01:40;27.17;;;12.30;;
32786;SDS011;19139;49.372;8.580;2024-01-15T04:04:06;24.48;;;11.85;;
32786;SDS011;19139;49.372;8.580;2024-01-15T04:06:33;28.17;;;13.05;;
32786;SDS011;19139;49.372;8.580;2024-01-15T04:09:00;20.00;;;11.48;;
32786;SDS011;19139;49.372;8.580;2024-01-15T04:11:27;28.35;;;13.02;;
32786;SDS011;19139;49.372;8.580;2024-01-15T04:13:54;29.40;;;12.80;;
32786;SDS011;19139;49.372;8.580;2024-01-15T04:16:20;27.73;;;13.27;;
32786;SDS011;19139;49.372;8.580;2024-01-15T04:18:47;27.63;;;13.23;;
32786;SDS011;19139;49.372;8.580;2024-01-15T04:21:14;25.33;;;12.02;;
32786;SDS011;19139;49.372;8.580;2024-01-15T04:23:42;25.88;;;12.00;;
32786;SDS011;19139;49.372;8.580;2024-01-15T04:26:09;25.13;;;10.98;;
32786;SDS011;19139;49.372;8.580;2024-01-15T04:28:36;33.08;;;14.13;;
32786;SDS011;19139;49.372;8.580;2024-01-15T04:31:03;25.30;;;12.45;;
32786;SDS011;19139;49.372;8.580;2024-01-15T04:33:30;22.35;;;11.13;;
32786;SDS011;19139;49.372;8.580;2024-01-15T04:35:57;29.83;;;12.25;;
32786;SDS011;19139;49.372;8.580;2024-01-15T04:38:28;28.23;;;13.15;;
32786;SDS011;19139;49.372;8.580;2024-01-15T04:40:54;26.75;;;12.25;;
32786;SDS011;19139;49.372;8.580;2024-01-15T04:43:23;25.98;;;12.55;;
32786;SDS011;19139;49.372;8.580;2024-01-15T04:45:50;25.70;;;11.65;;
32786;SDS011;19139;49.372;8.580;2024-01-15T04:48:18;26.80;;;13.15;;
32786;SDS011;19139;49.372;8.580;2024-01-15T04:50:44;27.15;;;12.88;;
32786;SDS011;19139;49.372;8.580;2024-01-15T04:53:12;31.02;;;13.88;;
32786;SDS011;19139;49.372;8.580;2024-01-15T04:55:39;23.65;;;11.38;;
32786;SDS011;19139;49.372;8.580;2024-01-15T04:58:06;29.92;;;13.70;;
32786;SDS011;19139;49.372;8.580;2024-01-15T05:00:32;28.17;;;12.75;;
32786;SDS011;19139;49.372;8.580;2024-01-15T05:03:00;25.15;;;12.68;;
32786;SDS011;19139;49.372;8.580;2024-01-15T05:05:26;30.85;;;13.63;;
32786;SDS011;19139;49.372;8.580;2024-01-15T05:07:53;28.15;;;13.00;;
32786;SDS011;19139;49.372;8.580;2024-01-15T05:10:20;25.67;;;12.50;;
32786;SDS011;19139;49.372;8.580;2024-01-15T05:12:47;26.98;;;12.55;;
32786;SDS011;19139;49.372;8.580;2024-01-15T05:15:13;22.83;;;12.45;;
32786;SDS011;19139;49.372;8.580;2024-01-15T05:17:40;29.77;;;14.02;;
32786;SDS011;19139;49.372;8.580;2024-01-15T05:20:07;26.40;;;12.55;;
32786;SDS011;19139;49.372;8.580;2024-01-15T05:22:35;28.98;;;13.23;;
32786;SDS011;19139;49.372;8.580;2024-01-15T05:25:01;28.35;;;13.93;;
32786;SDS011;19139;49.372;8.580;2024-01-15T05:27:28;33.70;;;13.75;;
32786;SDS011;19139;49.372;8.580;2024-01-15T05:29:55;23.55;;;13.32;;
32786;SDS011;19139;49.372;8.580;2024-01-15T05:32:22;24.55;;;12.02;;
32786;SDS011;19139;49.372;8.580;2024-01-15T05:34:50;27.70;;;13.38;;
32786;SDS011;19139;49.372;8.580;2024-01-15T05:37:16;29.73;;;16.98;;
32786;SDS011;19139;49.372;8.580;2024-01-15T05:39:43;29.67;;;14.50;;
32786;SDS011;19139;49.372;8.580;2024-01-15T05:42:10;26.33;;;13.10;;
32786;SDS011;19139;49.372;8.580;2024-01-15T05:44:37;28.92;;;13.55;;
32786;SDS011;19139;49.372;8.580;2024-01-15T05:47:04;26.85;;;12.98;;
32786;SDS011;19139;49.372;8.580;2024-01-15T05:49:31;26.77;;;12.90;;
32786;SDS011;19139;49.372;8.580;2024-01-15T05:51:58;27.98;;;13.23;;
32786;SDS011;19139;49.372;8.580;2024-01-15T05:54:24;30.05;;;16.00;;
32786;SDS011;19139;49.372;8.580;2024-01-15T05:56:51;32.70;;;15.27;;
32786;SDS011;19139;49.372;8.580;2024-01-15T05:59:18;28.60;;;14.63;;
32786;SDS011;19139;49.372;8.580;2024-01-15T06:01:45;32.80;;;15.40;;
32786;SDS011;19139;49.372;8.580;2024-01-15T06:04:12;29.55;;;14.20;;
32786;SDS011;19139;49.372;8.580;2024-01-15T06:06:39;33.90;;;16.00;;
32786;SDS011;19139;49.372;8.580;2024-01-15T06:09:06;30.38;;;15.10;;
32786;SDS011;19139;49.372;8.580;2024-01-15T06:11:32;28.45;;;13.85;;
32786;SDS011;19139;49.372;8.580;2024-01-15T06:13:59;25.90;;;13.30;;
32786;SDS011;19139;49.372;8.580;2024-01-15T06:16:26;23.80;;;12.80;;
32786;SDS011;19139;49.372;8.580;2024-01-15T06:18:54;27.23;;;13.23;;
32786;SDS011;19139;49.372;8.580;2024-01-15T06:21:21;27.23;;;12.98;;
32786;SDS011;19139;49.372;8.580;2024-01-15T06:23:48;27.33;;;13.32;;
32786;SDS011;19139;49.372;8.580;2024-01-15T06:26:15;27.58;;;14.52;;
32786;SDS011;19139;49.372;8.580;2024-01-15T06:28:42;27.48;;;14.43;;
32786;SDS011;19139;49.372;8.580;2024-01-15T06:31:08;27.30;;;13.10;;
32786;SDS011;19139;49.372;8.580;2024-01-15T06:33:35;28.45;;;12.73;;
32786;SDS011;19139;49.372;8.580;2024-01-15T06:36:02;27.25;;;13.48;;
32786;SDS011;19139;49.372;8.580;2024-01-15T06:38:30;28.35;;;13.90;;
32786;SDS011;19139;49.372;8.580;2024-01-15T06:40:56;25.17;;;12.32;;
32786;SDS011;19139;49.372;8.580;2024-01-15T06:43:23;23.10;;;13.00;;
32786;SDS011;19139;49.372;8.580;2024-01-15T06:45:50;28.13;;;13.68;;
32786;SDS011;19139;49.372;8.580;2024-01-15T06:48:17;31.33;;;12.98;;
32786;SDS011;19139;49.372;8.580;2024-01-15T06:50:43;29.35;;;13.88;;
32786;SDS011;19139;49.372;8.580;2024-01-15T06:53:10;27.30;;;12.82;;
32786;SDS011;19139;49.372;8.580;2024-01-15T06:55:38;27.48;;;13.75;;
32786;SDS011;19139;49.372;8.580;2024-01-15T06:58:05;30.77;;;12.45;;
32786;SDS011;19139;49.372;8.580;2024-01-15T07:00:32;25.60;;;13.77;;
32786;SDS011;19139;49.372;8.580;2024-01-15T07:02:59;26.15;;;13.98;;
32786;SDS011;19139;49.372;8.580;2024-01-15T07:05:26;28.27;;;14.80;;
32786;SDS011;19139;49.372;8.580;2024-01-15T07:07:53;25.17;;;13.27;;
32786;SDS011;19139;49.372;8.580;2024-01-15T07:10:20;24.58;;;11.70;;
32786;SDS011;19139;49.372;8.580;2024-01-15T07:12:46;29.38;;;13.65;;
32786;SDS011;19139;49.372;8.580;2024-01-15T07:15:14;24.98;;;13.70;;
32786;SDS011;19139;49.372;8.580;2024-01-15T07:17:41;26.52;;;13.70;;
32786;SDS011;19139;49.372;8.580;2024-01-15T07:20:09;25.48;;;13.23;;
32786;SDS011;19139;49.372;8.580;2024-01-15T07:22:36;26.00;;;13.10;;
32786;SDS011;19139;49.372;8.580;2024-01-15T07:25:03;25.40;;;12.75;;
32786;SDS011;19139;49.372;8.580;2024-01-15T07:27:31;26.38;;;13.23;;
32786;SDS011;19139;49.372;8.580;2024-01-15T07:29:58;30.15;;;13.90;;
32786;SDS011;19139;49.372;8.580;2024-01-15T07:32:28;27.90;;;13.85;;
32786;SDS011;19139;49.372;8.580;2024-01-15T07:34:55;28.63;;;14.82;;
32786;SDS011;19139;49.372;8.580;2024-01-15T07:37:22;30.73;;;14.65;;
32786;SDS011;19139;49.372;8.580;2024-01-15T07:39:49;29.13;;;13.40;;
32786;SDS011;19139;49.372;8.580;2024-01-15T07:42:16;26.02;;;13.45;;
32786;SDS011;19139;49.372;8.580;2024-01-15T07:44:43;29.58;;;14.95;;
32786;SDS011;19139;49.372;8.580;2024-01-15T07:47:11;30.38;;;13.95;;
32786;SDS011;19139;49.372;8.580;2024-01-15T07:49:38;28.92;;;14.63;;
32786;SDS011;19139;49.372;8.580;2024-01-15T07:52:05;26.00;;;14.68;;
32786;SDS011;19139;49.372;8.580;2024-01-15T07:54:32;26.15;;;14.25;;
32786;SDS011;19139;49.372;8.580;2024-01-15T07:56:59;30.10;;;14.30;;
32786;SDS011;19139;49.372;8.580;2024-01-15T07:59:27;26.15;;;13.82;;
32786;SDS011;19139;49.372;8.580;2024-01-15T08:01:54;33.35;;;15.23;;
32786;SDS011;19139;49.372;8.580;2024-01-15T08:04:21;27.63;;;13.80;;
32786;SDS011;19139;49.372;8.580;2024-01-15T08:06:50;29.50;;;15.05;;
32786;SDS011;19139;49.372;8.580;2024-01-15T08:09:17;29.38;;;14.23;;
32786;SDS011;19139;49.372;8.580;2024-01-15T08:11:44;28.90;;;13.38;;
32786;SDS011;19139;49.372;8.580;2024-01-15T08:14:11;25.38;;;13.63;;
32786;SDS011;19139;49.372;8.580;2024-01-15T08:16:39;25.08;;;14.30;;
32786;SDS011;19139;49.372;8.580;2024-01-15T08:19:06;23.02;;;12.25;;
32786;SDS011;19139;49.372;8.580;2024-01-15T08:21:34;27.30;;;14.50;;
32786;SDS011;19139;49.372;8.580;2024-01-15T08:24:01;31.52;;;15.57;;
32786;SDS011;19139;49.372;8.580;2024-01-15T08:26:29;27.92;;;14.82;;
32786;SDS011;19139;49.372;8.580;2024-01-15T08:28:56;26.35;;;16.40;;
32786;SDS011;19139;49.372;8.580;2024-01-15T08:31:23;28.40;;;15.32;;
32786;SDS011;19139;49.372;8.580;2024-01-15T08:33:50;25.43;;;14.93;;
32786;SDS011;19139;49.372;8.580;2024-01-15T08:36:17;32.50;;;17.73;;
32786;SDS011;19139;49.372;8.580;2024-01-15T08:38:44;26.93;;;14.20;;
32786;SDS011;19139;49.372;8.580;2024-01-15T08:41:11;25.67;;;13.27;;
32786;SDS011;19139;49.372;8.580;2024-01-15T08:43:39;22.83;;;12.50;;
32786;SDS011;19139;49.372;8.580;2024-01-15T08:46:06;26.50;;;15.57;;
32786;SDS011;19139;49.372;8.580;2024-01-15T08:48:33;31.20;;;16.00;;
32786;SDS011;19139;49.372;8.580;2024-01-15T08:51:01;20.90;;;12.07;;
32786;SDS011;19139;49.372;8.580;2024-01-15T08:53:27;22.50;;;12.38;;
32786;SDS011;19139;49.372;8.580;2024-01-15T08:55:55;22.95;;;12.80;;
32786;SDS011;19139;49.372;8.580;2024-01-15T08:58:23;23.03;;;12.83;;
32786;SDS011;19139;49.372;8.580;2024-01-15T09:00:50;21.10;;;12.73;;
32786;SDS011;19139;49.372;8.580;2024-01-15T09:03:17;20.50;;;11.53;;
32786;SDS011;19139;49.372;8.580;2024-01-15T09:05:44;25.13;;;12.70;;
32786;SDS011;19139;49.372;8.580;2024-01-15T09:08:11;23.23;;;11.83;;
32786;SDS011;19139;49.372;8.580;2024-01-15T09:10:38;21.03;;;11.57;;
32786;SDS011;19139;49.372;8.580;2024-01-15T09:13:05;23.13;;;11.90;;
32786;SDS011;19139;49.372;8.580;2024-01-15T09:15:32;25.75;;;12.57;;
32786;SDS011;19139;49.372;8.580;2024-01-15T09:17:59;19.97;;;10.50;;
32786;SDS011;19139;49.372;8.580;2024-01-15T09:20:29;23.73;;;11.98;;
32786;SDS011;19139;49.372;8.580;2024-01-15T09:22:56;24.70;;;11.50;;
32786;SDS011;19139;49.372;8.580;2024-01-15T09:25:22;22.67;;;11.80;;
32786;SDS011;19139;49.372;8.580;2024-01-15T09:27:49;19.60;;;11.47;;
32786;SDS011;19139;49.372;8.580;2024-01-15T09:30:16;21.97;;;12.17;;
32786;SDS011;19139;49.372;8.580;2024-01-15T09:32:43;24.50;;;12.37;;
32786;SDS011;19139;49.372;8.580;2024-01-15T09:35:10;16.20;;;10.33;;
32786;SDS011;19139;49.372;8.580;2024-01-15T09:37:38;19.50;;;10.97;;
32786;SDS011;19139;49.372;8.580;2024-01-15T09:40:13;20.33;;;11.67;;
32786;SDS011;19139;49.372;8.580;2024-01-15T09:42:43;22.30;;;11.47;;
32786;SDS011;19139;49.372;8.580;2024-01-15T09:45:12;20.33;;;11.43;;
32786;SDS011;19139;49.372;8.580;2024-01-15T09:47:40;22.63;;;11.67;;
32786;SDS011;19139;49.372;8.580;2024-01-15T09:50:11;20.83;;;11.40;;
32786;SDS011;19139;49.372;8.580;2024-01-15T09:52:39;26.00;;;13.83;;
32786;SDS011;19139;49.372;8.580;2024-01-15T09:55:07;21.17;;;11.90;;
32786;SDS011;19139;49.372;8.580;2024-01-15T09:57:36;23.70;;;12.80;;
32786;SDS011;19139;49.372;8.580;2024-01-15T10:00:04;23.47;;;13.47;;
32786;SDS011;19139;49.372;8.580;2024-01-15T10:02:33;24.93;;;13.63;;
32786;SDS011;19139;49.372;8.580;2024-01-15T10:05:02;25.50;;;13.70;;
32786;SDS011;19139;49.372;8.580;2024-01-15T10:07:29;21.93;;;13.37;;
32786;SDS011;19139;49.372;8.580;2024-01-15T10:10:00;23.80;;;12.77;;
32786;SDS011;19139;49.372;8.580;2024-01-15T10:12:27;25.77;;;14.00;;
32786;SDS011;19139;49.372;8.580;2024-01-15T10:14:55;22.57;;;12.33;;
32786;SDS011;19139;49.372;8.580;2024-01-15T10:17:23;21.93;;;12.77;;
32786;SDS011;19139;49.372;8.580;2024-01-15T10:19:51;24.43;;;12.67;;
32786;SDS011;19139;49.372;8.580;2024-01-15T10:22:18;21.07;;;12.57;;
32786;SDS011;19139;49.372;8.580;2024-01-15T10:24:45;24.40;;;13.10;;
32786;SDS011;19139;49.372;8.580;2024-01-15T10:27:14;23.67;;;14.43;;
32786;SDS011;19139;49.372;8.580;2024-01-15T10:29:42;24.40;;;13.63;;
32786;SDS011;19139;49.372;8.580;2024-01-15T10:32:08;28.57;;;15.83;;
32786;SDS011;19139;49.372;8.580;2024-01-15T10:34:39;24.70;;;13.13;;
32786;SDS011;19139;49.372;8.580;2024-01-15T10:37:08;25.37;;;13.93;;
32786;SDS011;19139;49.372;8.580;2024-01-15T10:39:36;23.80;;;13.07;;
32786;SDS011;19139;49.372;8.580;2024-01-15T10:42:03;27.47;;;13.77;;
32786;SDS011;19139;49.372;8.580;2024-01-15T10:44:30;24.50;;;14.33;;
32786;SDS011;19139;49.372;8.580;2024-01-15T10:46:58;30.70;;;18.38;;
32786;SDS011;19139;49.372;8.580;2024-01-15T10:49:25;27.30;;;14.97;;
32786;SDS011;19139;49.372;8.580;2024-01-15T10:51:58;28.97;;;13.43;;
32786;SDS011;19139;49.372;8.580;2024-01-15T10:54:26;21.17;;;13.33;;
32786;SDS011;19139;49.372;8.580;2024-01-15T10:56:54;22.53;;;13.70;;
32786;SDS011;19139;49.372;8.580;2024-01-15T10:59:22;25.50;;;14.50;;
32786;SDS011;19139;49.372;8.580;2024-01-15T11:01:50;28.93;;;14.80;;
32786;SDS011;19139;49.372;8.580;2024-01-15T11:04:21;28.80;;;15.47;;
32786;SDS011;19139;49.372;8.580;2024-01-15T11:06:51;25.37;;;13.53;;
32786;SDS011;19139;49.372;8.580;2024-01-15T11:09:21;26.70;;;14.13;;
32786;SDS011;19139;49.372;8.580;2024-01-15T11:11:51;26.87;;;14.17;;
32786;SDS011;19139;49.372;8.580;2024-01-15T11:14:34;22.70;;;13.30;;
32786;SDS011;19139;49.372;8.580;2024-01-15T11:17:14;27.93;;;13.77;;
32786;SDS011;19139;49.372;8.580;2024-01-15T11:19:46;25.93;;;14.30;;
32786;SDS011;19139;49.372;8.580;2024-01-15T11:24:57;27.50;;;14.33;;
32786;SDS011;19139;49.372;8.580;2024-01-15T11:27:43;22.40;;;13.30;;
32786;SDS011;19139;49.372;8.580;2024-01-15T11:30:14;24.47;;;12.60;;
32786;SDS011;19139;49.372;8.580;2024-01-15T11:32:41;24.20;;;12.40;;
32786;SDS011;19139;49.372;8.580;2024-01-15T11:35:10;22.50;;;12.90;;
32786;SDS011;19139;49.372;8.580;2024-01-15T11:40:18;22.23;;;12.87;;
32786;SDS011;19139;49.372;8.580;2024-01-15T11:42:46;22.13;;;12.13;;
32786;SDS011;19139;49.372;8.580;2024-01-15T11:45:20;23.60;;;11.77;;
32786;SDS011;19139;49.372;8.580;2024-01-15T11:50:45;21.97;;;12.97;;
32786;SDS011;19139;49.372;8.580;2024-01-15T11:53:17;25.57;;;13.77;;
32786;SDS011;19139;49.372;8.580;2024-01-15T11:55:49;23.57;;;12.70;;
32786;SDS011;19139;49.372;8.580;2024-01-15T11:58:17;20.03;;;11.67;;
32786;SDS011;19139;49.372;8.580;2024-01-15T12:00:45;23.17;;;11.80;;
32786;SDS011;19139;49.372;8.580;2024-01-15T12:03:15;19.70;;;11.20;;
32786;SDS011;19139;49.372;8.580;2024-01-15T12:05:42;22.37;;;12.00;;
32786;SDS011;19139;49.372;8.580;2024-01-15T12:08:09;20.50;;;12.07;;
32786;SDS011;19139;49.372;8.580;2024-01-15T12:10:39;21.40;;;11.57;;
32786;SDS011;19139;49.372;8.580;2024-01-15T12:13:11;20.70;;;12.03;;
32786;SDS011;19139;49.372;8.580;2024-01-15T12:15:43;22.50;;;11.53;;
32786;SDS011;19139;49.372;8.580;2024-01-15T12:18:13;24.73;;;12.77;;
32786;SDS011;19139;49.372;8.580;2024-01-15T12:20:42;21.80;;;12.60;;
32786;SDS011;19139;49.372;8.580;2024-01-15T12:23:10;18.20;;;11.53;;
32786;SDS011;19139;49.372;8.580;2024-01-15T12:25:37;23.67;;;13.43;;
32786;SDS011;19139;49.372;8.580;2024-01-15T12:28:05;21.97;;;12.30;;
32786;SDS011;19139;49.372;8.580;2024-01-15T12:30:33;22.57;;;12.53;;
32786;SDS011;19139;49.372;8.580;2024-01-15T12:33:04;20.23;;;12.17;;
32786;SDS011;19139;49.372;8.580;2024-01-15T12:35:33;18.60;;;11.50;;
32786;SDS011;19139;49.372;8.580;2024-01-15T12:38:00;22.50;;;12.33;;
32786;SDS011;19139;49.372;8.580;2024-01-15T12:40:31;21.40;;;11.47;;
32786;SDS011;19139;49.372;8.580;2024-01-15T12:43:00;19.67;;;12.03;;
32786;SDS011;19139;49.372;8.580;2024-01-15T12:45:27;18.50;;;11.43;;
32786;SDS011;19139;49.372;8.580;2024-01-15T12:47:55;18.53;;;10.53;;
32786;SDS011;19139;49.372;8.580;2024-01-15T12:50:24;18.53;;;9.73;;
32786;SDS011;19139;49.372;8.580;2024-01-15T12:52:51;19.63;;;10.27;;
32786;SDS011;19139;49.372;8.580;2024-01-15T12:55:18;13.83;;;9.67;;
32786;SDS011;19139;49.372;8.580;2024-01-15T12:57:45;14.70;;;9.00;;
32786;SDS011;19139;49.372;8.580;2024-01-15T13:00:12;15.60;;;8.70;;
32786;SDS011;19139;49.372;8.580;2024-01-15T13:02:41;15.37;;;10.13;;
32786;SDS011;19139;49.372;8.580;2024-01-15T13:05:09;16.10;;;8.73;;
32786;SDS011;19139;49.372;8.580;2024-01-15T13:07:41;14.77;;;8.90;;
32786;SDS011;19139;49.372;8.580;2024-01-15T13:10:09;12.27;;;8.20;;
32786;SDS011;19139;49.372;8.580;2024-01-15T13:12:36;14.77;;;8.13;;
32786;SDS011;19139;49.372;8.580;2024-01-15T13:15:04;12.87;;;7.57;;
32786;SDS011;19139;49.372;8.580;2024-01-15T13:17:31;11.00;;;7.33;;
32786;SDS011;19139;49.372;8.580;2024-01-15T13:19:58;13.60;;;8.47;;
32786;SDS011;19139;49.372;8.580;2024-01-15T13:22:26;12.43;;;8.13;;
32786;SDS011;19139;49.372;8.580;2024-01-15T13:24:58;12.80;;;7.93;;
32786;SDS011;19139;49.372;8.580;2024-01-15T13:27:25;14.70;;;9.57;;
32786;SDS011;19139;49.372;8.580;2024-01-15T13:29:53;12.30;;;9.20;;
32786;SDS011;19139;49.372;8.580;2024-01-15T13:32:24;12.83;;;7.77;;
32786;SDS011;19139;49.372;8.580;2024-01-15T13:34:57;14.77;;;9.00;;
32786;SDS011;19139;49.372;8.580;2024-01-15T13:37:26;14.50;;;8.80;;
32786;SDS011;19139;49.372;8.580;2024-01-15T13:39:54;12.37;;;9.00;;
32786;SDS011;19139;49.372;8.580;2024-01-15T13:42:21;12.03;;;7.47;;
32786;SDS011;19139;49.372;8.580;2024-01-15T13:44:48;12.87;;;8.50;;
32786;SDS011;19139;49.372;8.580;2024-01-15T13:47:15;11.23;;;7.70;;
32786;SDS011;19139;49.372;8.580;2024-01-15T13:49:42;15.67;;;8.17;;
32786;SDS011;19139;49.372;8.580;2024-01-15T13:52:09;12.30;;;8.50;;
32786;SDS011;19139;49.372;8.580;2024-01-15T13:54:35;14.83;;;8.63;;
32786;SDS011;19139;49.372;8.580;2024-01-15T13:57:15;11.83;;;7.40;;
32786;SDS011;19139;49.372;8.580;2024-01-15T13:59:44;11.53;;;7.37;;
32786;SDS011;19139;49.372;8.580;2024-01-15T14:02:10;13.87;;;9.00;;
32786;SDS011;19139;49.372;8.580;2024-01-15T14:04:39;14.03;;;8.47;;
32786;SDS011;19139;49.372;8.580;2024-01-15T14:07:07;14.80;;;9.43;;
32786;SDS011;19139;49.372;8.580;2024-01-15T14:09:34;13.10;;;8.10;;
32786;SDS011;19139;49.372;8.580;2024-01-15T14:12:01;12.90;;;8.20;;
32786;SDS011;19139;49.372;8.580;2024-01-15T14:14:28;10.73;;;6.93;;
32786;SDS011;19139;49.372;8.580;2024-01-15T14:16:55;11.93;;;7.73;;
32786;SDS011;19139;49.372;8.580;2024-01-15T14:19:22;9.83;;;6.67;;
32786;SDS011;19139;49.372;8.580;2024-01-15T14:21:49;8.50;;;5.63;;
32786;SDS011;19139;49.372;8.580;2024-01-15T14:24:16;10.00;;;6.63;;
32786;SDS011;19139;49.372;8.580;2024-01-15T14:26:44;10.67;;;6.43;;
32786;SDS011;19139;49.372;8.580;2024-01-15T14:29:10;10.80;;;6.37;;
32786;SDS011;19139;49.372;8.580;2024-01-15T14:31:38;9.03;;;6.43;;
32786;SDS011;19139;49.372;8.580;2024-01-15T14:34:05;10.03;;;6.37;;
32786;SDS011;19139;49.372;8.580;2024-01-15T14:36:36;11.97;;;6.90;;
32786;SDS011;19139;49.372;8.580;2024-01-15T14:39:03;11.90;;;6.63;;
32786;SDS011;19139;49.372;8.580;2024-01-15T14:41:31;9.23;;;6.10;;
32786;SDS011;19139;49.372;8.580;2024-01-15T14:43:57;13.53;;;7.63;;
32786;SDS011;19139;49.372;8.580;2024-01-15T14:46:24;9.23;;;6.43;;
32786;SDS011;19139;49.372;8.580;2024-01-15T14:48:53;9.80;;;6.07;;
32786;SDS011;19139;49.372;8.580;2024-01-15T14:51:20;10.70;;;6.90;;
32786;SDS011;19139;49.372;8.580;2024-01-15T14:53:47;8.47;;;5.80;;
32786;SDS011;19139;49.372;8.580;2024-01-15T14:56:13;11.37;;;6.30;;
32786;SDS011;19139;49.372;8.580;2024-01-15T14:58:43;13.83;;;6.53;;
32786;SDS011;19139;49.372;8.580;2024-01-15T15:01:10;9.27;;;5.83;;
32786;SDS011;19139;49.372;8.580;2024-01-15T15:03:37;10.10;;;6.73;;
32786;SDS011;19139;49.372;8.580;2024-01-15T15:06:05;9.50;;;6.80;;
32786;SDS011;19139;49.372;8.580;2024-01-15T15:08:35;10.63;;;6.50;;
32786;SDS011;19139;49.372;8.580;2024-01-15T15:11:05;9.80;;;6.53;;
32786;SDS011;19139;49.372;8.580;2024-01-15T15:13:32;12.93;;;7.63;;
32786;SDS011;19139;49.372;8.580;2024-01-15T15:16:10;10.30;;;6.83;;
32786;SDS011;19139;49.372;8.580;2024-01-15T15:18:39;14.53;;;9.70;;
32786;SDS011;19139;49.372;8.580;2024-01-15T15:21:06;8.50;;;5.57;;
32786;SDS011;19139;49.372;8.580;2024-01-15T15:23:33;11.13;;;6.80;;
32786;SDS011;19139;49.372;8.580;2024-01-15T15:26:01;10.47;;;7.23;;
32786;SDS011;19139;49.372;8.580;2024-01-15T15:28:28;8.63;;;6.10;;
32786;SDS011;19139;49.372;8.580;2024-01-15T15:30:54;9.23;;;6.30;;
32786;SDS011;19139;49.372;8.580;2024-01-15T15:33:23;9.47;;;6.13;;
32786;SDS011;19139;49.372;8.580;2024-01-15T15:35:50;10.27;;;5.73;;
32786;SDS011;19139;49.372;8.580;2024-01-15T15:38:17;9.33;;;5.97;;
32786;SDS011;19139;49.372;8.580;2024-01-15T15:40:44;11.17;;;7.03;;
32786;SDS011;19139;49.372;8.580;2024-01-15T15:43:11;6.87;;;5.10;;
32786;SDS011;19139;49.372;8.580;2024-01-15T15:45:37;9.50;;;5.90;;
32786;SDS011;19139;49.372;8.580;2024-01-15T15:48:04;10.40;;;5.23;;
32786;SDS011;19139;49.372;8.580;2024-01-15T15:50:32;10.37;;;5.23;;
32786;SDS011;19139;49.372;8.580;2024-01-15T15:53:01;7.87;;;4.90;;
32786;SDS011;19139;49.372;8.580;2024-01-15T15:55:29;12.77;;;6.53;;
32786;SDS011;19139;49.372;8.580;2024-01-15T15:57:56;8.37;;;5.73;;
32786;SDS011;19139;49.372;8.580;2024-01-15T16:00:23;9.50;;;5.93;;
32786;SDS011;19139;49.372;8.580;2024-01-15T16:02:50;12.00;;;6.30;;
32786;SDS011;19139;49.372;8.580;2024-01-15T16:05:17;10.53;;;6.63;;
32786;SDS011;19139;49.372;8.580;2024-01-15T16:07:44;9.30;;;5.63;;
32786;SDS011;19139;49.372;8.580;2024-01-15T16:10:11;10.97;;;6.90;;
32786;SDS011;19139;49.372;8.580;2024-01-15T16:12:38;12.47;;;6.80;;
32786;SDS011;19139;49.372;8.580;2024-01-15T16:15:16;32.00;;;18.47;;
32786;SDS011;19139;49.372;8.580;2024-01-15T16:17:46;21.07;;;12.10;;
32786;SDS011;19139;49.372;8.580;2024-01-15T16:20:36;10.30;;;6.50;;
32786;SDS011;19139;49.372;8.580;2024-01-15T16:23:23;12.00;;;6.87;;
32786;SDS011;19139;49.372;8.580;2024-01-15T16:26:10;13.23;;;7.20;;
32786;SDS011;19139;49.372;8.580;2024-01-15T16:28:37;9.83;;;6.67;;
32786;SDS011;19139;49.372;8.580;2024-01-15T16:31:04;9.87;;;5.67;;
32786;SDS011;19139;49.372;8.580;2024-01-15T16:33:35;9.27;;;5.50;;
32786;SDS011;19139;49.372;8.580;2024-01-15T16:36:02;8.50;;;4.73;;
32786;SDS011;19139;49.372;8.580;2024-01-15T16:38:29;9.80;;;5.40;;
32786;SDS011;19139;49.372;8.580;2024-01-15T16:40:56;10.50;;;5.77;;
32786;SDS011;19139;49.372;8.580;2024-01-15T16:43:25;9.43;;;5.77;;
32786;SDS011;19139;49.372;8.580;2024-01-15T16:45:52;10.07;;;5.43;;